Side Lake, Minnesota
Current Conditions -  °F | °C
As of 5:15 PM on Wednesday 26 Nov 2014 (Local Time) from KCQM Reporting Station
Clear Clear  
Wind Chill:   Ceiling: Unl
Heat Index:   Visibility: 10mi
Dew Point: -6°   Wind: 3mph
Humidity: 66%   Direction: 310°NW
Pressure: 30.32"   Gusts: NA
Location:  47.67°N, 93.02°W
Report Text: KCQM 262315Z AUTO 31003KT 10SM CLR M16/M21 A3032 RMK AO2
Loading
Personal Weather Stations






























Interactive Weather Map New forecast layout! Learn more

10-Day Weather Forecast

Advertisements
Track Severe Weather on mobile